createdAt,value
2022-08-08T00:00:56.574Z,101380.00
2022-08-08T00:05:43.998Z,101382.00
2022-08-08T00:10:41.926Z,101380.00
2022-08-08T00:15:56.603Z,101380.00
2022-08-08T00:20:45.844Z,101378.00
2022-08-08T00:25:51.180Z,101373.00
2022-08-08T00:31:00.183Z,101369.00
2022-08-08T00:35:51.926Z,101369.00
2022-08-08T00:41:09.293Z,101369.00
2022-08-08T00:45:54.132Z,101371.00
2022-08-08T00:50:53.887Z,101369.00
2022-08-08T00:55:54.746Z,101365.00
2022-08-08T01:00:55.753Z,101367.00
2022-08-08T01:05:59.459Z,101367.00
2022-08-08T01:11:01.861Z,101367.00
2022-08-08T01:16:04.090Z,101375.00
2022-08-08T01:21:08.648Z,101377.00
2022-08-08T01:26:11.739Z,101377.00
2022-08-08T01:32:05.661Z,101378.00
2022-08-08T01:36:14.515Z,101375.00
2022-08-08T01:41:16.168Z,101373.00
2022-08-08T01:46:16.174Z,101373.00
2022-08-08T01:51:32.022Z,101369.00
2022-08-08T01:56:30.805Z,101367.00
2022-08-08T02:01:28.209Z,101369.00
2022-08-08T02:06:31.768Z,101373.00
2022-08-08T02:11:59.096Z,101369.00
2022-08-08T02:16:34.125Z,101369.00
2022-08-08T02:21:52.712Z,101373.00
2022-08-08T02:26:55.392Z,101377.00
2022-08-08T02:31:58.767Z,101378.00
2022-08-08T02:36:59.407Z,101375.00
2022-08-08T02:42:05.716Z,101373.00
2022-08-08T02:47:01.054Z,101367.00
2022-08-08T02:52:32.517Z,101367.00
2022-08-08T02:57:12.142Z,101373.00
2022-08-08T03:02:08.217Z,101373.00
2022-08-08T03:07:10.196Z,101377.00
2022-08-08T03:12:13.851Z,101375.00
2022-08-08T03:17:21.866Z,101377.00
2022-08-08T03:22:38.607Z,101375.00
2022-08-08T03:27:21.765Z,101377.00
2022-08-08T03:32:41.719Z,101378.00
2022-08-08T03:38:54.600Z,101386.00
2022-08-08T03:42:45.708Z,101388.00
2022-08-08T03:47:50.047Z,101392.00
2022-08-08T03:52:49.362Z,101398.00
2022-08-08T03:58:33.653Z,101404.00
2022-08-08T04:02:52.597Z,101406.00
2022-08-08T04:07:53.188Z,101410.00
2022-08-08T04:12:53.052Z,101418.00
2022-08-08T04:17:59.159Z,101422.00
2022-08-08T04:22:57.041Z,101424.00
2022-08-08T04:28:35.479Z,101422.00
2022-08-08T04:33:01.891Z,101425.00
2022-08-08T04:38:03.967Z,101429.00
2022-08-08T04:43:19.042Z,101429.00
2022-08-08T04:48:21.975Z,101433.00
2022-08-08T04:54:26.838Z,101435.00
2022-08-08T04:58:25.115Z,101435.00
2022-08-08T05:04:09.746Z,101445.00
2022-08-08T05:08:28.780Z,101449.00
2022-08-08T05:13:29.244Z,101453.00
2022-08-08T05:18:33.795Z,101455.00
2022-08-08T05:23:41.320Z,101453.00
2022-08-08T05:28:55.991Z,101455.00
2022-08-08T05:33:44.046Z,101455.00
2022-08-08T05:38:42.893Z,101455.00
2022-08-08T05:44:03.767Z,101453.00
2022-08-08T05:48:49.910Z,101457.00
2022-08-08T05:54:24.516Z,101455.00
2022-08-08T05:58:56.905Z,101461.00
2022-08-08T06:03:55.708Z,101463.00
2022-08-08T06:09:00.442Z,101467.00
2022-08-08T06:14:02.560Z,101469.00
2022-08-08T06:19:04.977Z,101474.00
2022-08-08T06:24:22.821Z,101484.00
2022-08-08T06:29:48.766Z,101490.00
2022-08-08T06:34:27.507Z,101492.00
2022-08-08T06:39:18.288Z,101494.00
2022-08-08T06:44:22.960Z,101492.00
2022-08-08T06:49:54.857Z,101492.00
2022-08-08T06:54:24.408Z,101490.00
2022-08-08T06:59:27.122Z,101486.00
2022-08-08T07:04:38.876Z,101486.00
2022-08-08T07:09:45.359Z,101488.00
2022-08-08T07:14:32.548Z,101486.00
2022-08-08T07:19:32.631Z,101486.00
2022-08-08T07:24:34.056Z,101490.00
2022-08-08T07:30:02.293Z,101484.00
2022-08-08T07:34:48.382Z,101488.00
2022-08-08T07:39:56.285Z,101490.00
2022-08-08T07:44:44.175Z,101488.00
2022-08-08T07:49:49.279Z,101488.00
2022-08-08T07:54:48.949Z,101488.00
2022-08-08T07:59:49.994Z,101490.00
2022-08-08T08:04:52.367Z,101486.00
2022-08-08T08:09:52.498Z,101482.00
2022-08-08T08:14:55.645Z,101482.00
2022-08-08T08:19:56.950Z,101482.00
2022-08-08T08:24:58.584Z,101482.00
2022-08-08T08:30:02.019Z,101480.00
2022-08-08T08:35:03.595Z,101482.00
2022-08-08T08:40:05.429Z,101480.00
2022-08-08T08:45:10.282Z,101480.00
2022-08-08T08:50:31.549Z,101478.00
2022-08-08T08:55:12.266Z,101480.00
2022-08-08T09:00:19.072Z,101478.00
2022-08-08T09:05:49.221Z,101474.00
2022-08-08T09:10:17.778Z,101469.00
2022-08-08T09:15:40.893Z,101469.00
2022-08-08T09:22:05.388Z,101469.00
2022-08-08T09:25:24.558Z,101469.00
2022-08-08T09:30:27.476Z,101471.00
2022-08-08T09:35:32.250Z,101467.00
2022-08-08T09:40:44.019Z,101463.00
2022-08-08T09:46:01.973Z,101467.00
2022-08-08T09:50:34.679Z,101465.00
2022-08-08T09:56:04.829Z,101465.00
2022-08-08T10:00:53.689Z,101461.00
2022-08-08T10:05:39.779Z,101459.00
2022-08-08T10:10:41.619Z,101457.00
2022-08-08T10:15:42.358Z,101455.00
2022-08-08T10:20:57.496Z,101455.00
2022-08-08T10:25:56.969Z,101453.00
2022-08-08T10:30:57.433Z,101457.00
2022-08-08T10:36:20.018Z,101455.00
2022-08-08T10:40:53.193Z,101453.00
2022-08-08T10:45:57.329Z,101453.00
2022-08-08T10:50:55.386Z,101455.00
2022-08-08T10:55:56.460Z,101459.00
2022-08-08T11:01:04.006Z,101463.00
2022-08-08T11:06:00.900Z,101461.00
2022-08-08T11:11:00.491Z,101457.00
2022-08-08T11:16:07.810Z,101455.00
2022-08-08T11:21:09.043Z,101459.00
2022-08-08T11:26:06.440Z,101451.00
2022-08-08T11:31:06.410Z,101451.00
2022-08-08T11:36:08.390Z,101445.00
2022-08-08T11:41:10.580Z,101451.00
2022-08-08T11:46:17.385Z,101453.00
2022-08-08T11:51:37.881Z,101455.00
2022-08-08T11:56:15.520Z,101451.00
2022-08-08T12:01:16.407Z,101447.00
2022-08-08T12:06:17.517Z,101447.00
2022-08-08T12:11:18.390Z,101441.00
2022-08-08T12:16:20.482Z,101441.00
2022-08-08T12:21:25.656Z,101445.00
2022-08-08T12:26:28.356Z,101445.00
2022-08-08T12:31:26.456Z,101447.00
2022-08-08T12:36:28.885Z,101443.00
2022-08-08T12:41:35.292Z,101439.00
2022-08-08T12:46:32.561Z,101437.00
2022-08-08T12:51:39.546Z,101437.00
2022-08-08T12:56:34.459Z,101437.00
2022-08-08T13:01:36.968Z,101437.00
2022-08-08T13:06:37.516Z,101429.00
2022-08-08T13:12:19.815Z,101431.00
2022-08-08T13:16:40.565Z,101427.00
2022-08-08T13:21:53.127Z,101420.00
2022-08-08T13:26:42.638Z,101424.00
2022-08-08T13:31:43.493Z,101420.00
2022-08-08T13:36:44.578Z,101416.00
2022-08-08T13:41:54.653Z,101414.00
2022-08-08T13:46:46.533Z,101412.00
2022-08-08T13:51:48.685Z,101410.00
2022-08-08T13:56:59.632Z,101408.00
2022-08-08T14:01:53.084Z,101408.00
2022-08-08T14:06:52.558Z,101402.00
2022-08-08T14:11:54.586Z,101406.00
2022-08-08T14:16:55.266Z,101408.00
2022-08-08T14:21:55.556Z,101408.00
2022-08-08T14:26:57.643Z,101406.00
2022-08-08T14:32:12.766Z,101406.00
2022-08-08T14:36:59.555Z,101402.00
2022-08-08T14:42:03.047Z,101402.00
2022-08-08T14:47:02.637Z,101402.00
2022-08-08T14:52:04.588Z,101400.00
2022-08-08T14:57:05.648Z,101404.00
2022-08-08T15:02:10.807Z,101402.00
2022-08-08T15:07:22.565Z,101402.00
2022-08-08T15:12:14.943Z,101402.00
2022-08-08T15:17:16.706Z,101402.00
2022-08-08T15:22:17.920Z,101402.00
2022-08-08T15:28:03.225Z,101400.00
2022-08-08T15:32:23.273Z,101394.00
2022-08-08T15:37:23.629Z,101394.00
2022-08-08T15:42:32.397Z,101394.00
2022-08-08T15:47:26.581Z,101396.00
2022-08-08T15:52:26.625Z,101396.00
2022-08-08T15:57:26.640Z,101392.00
2022-08-08T16:02:30.499Z,101388.00
2022-08-08T16:07:35.875Z,101388.00
2022-08-08T16:13:11.363Z,101388.00
2022-08-08T16:17:57.721Z,101384.00
2022-08-08T16:22:38.346Z,101380.00
2022-08-08T16:27:38.889Z,101384.00
2022-08-08T16:32:39.701Z,101386.00
2022-08-08T16:37:47.263Z,101382.00
2022-08-08T16:42:44.843Z,101384.00
2022-08-08T16:47:46.906Z,101380.00
2022-08-08T16:55:05.349Z,101380.00
2022-08-08T16:58:14.412Z,101380.00
2022-08-08T17:02:55.771Z,101382.00
2022-08-08T17:07:55.827Z,101382.00
2022-08-08T17:12:57.716Z,101388.00
2022-08-08T17:18:03.113Z,101386.00
2022-08-08T17:23:16.659Z,101390.00
2022-08-08T17:28:01.701Z,101398.00
2022-08-08T17:34:36.728Z,101404.00
2022-08-08T17:38:03.751Z,101408.00
2022-08-08T17:43:03.774Z,101410.00
2022-08-08T17:48:03.799Z,101418.00
2022-08-08T17:53:03.698Z,101420.00
2022-08-08T17:58:05.718Z,101420.00
2022-08-08T18:03:08.860Z,101424.00
2022-08-08T18:08:07.725Z,101425.00
2022-08-08T18:13:09.766Z,101431.00
2022-08-08T18:18:29.556Z,101435.00
2022-08-08T18:23:14.665Z,101433.00
2022-08-08T18:28:14.350Z,101435.00
2022-08-08T18:33:36.563Z,101439.00
2022-08-08T18:38:19.401Z,101439.00
2022-08-08T18:43:18.864Z,101443.00
2022-08-08T18:48:19.024Z,101447.00
2022-08-08T18:53:18.792Z,101453.00
2022-08-08T18:58:21.633Z,101461.00
2022-08-08T19:03:23.069Z,101474.00
2022-08-08T19:08:29.351Z,101480.00
2022-08-08T19:13:52.600Z,101488.00
2022-08-08T19:18:31.853Z,101498.00
2022-08-08T19:23:35.445Z,101510.00
2022-08-08T19:28:36.536Z,101516.00
2022-08-08T19:33:52.182Z,101516.00
2022-08-08T19:38:37.893Z,101521.00
2022-08-08T19:43:56.232Z,101525.00
2022-08-08T19:48:39.880Z,101529.00
2022-08-08T19:53:53.808Z,101533.00
2022-08-08T19:58:41.960Z,101539.00
2022-08-08T20:04:01.438Z,101547.00
2022-08-08T20:08:48.210Z,101553.00
2022-08-08T20:14:31.515Z,101553.00
2022-08-08T20:18:52.981Z,101553.00
2022-08-08T20:23:54.237Z,101553.00
2022-08-08T20:28:54.899Z,101557.00
2022-08-08T20:34:27.075Z,101555.00
2022-08-08T20:38:57.836Z,101557.00
2022-08-08T20:43:59.835Z,101557.00
2022-08-08T20:49:00.094Z,101557.00
2022-08-08T20:54:04.845Z,101561.00
2022-08-08T20:59:03.232Z,101559.00
2022-08-08T21:04:03.856Z,101559.00
2022-08-08T21:09:03.889Z,101561.00
2022-08-08T21:14:07.475Z,101563.00
2022-08-08T21:19:05.882Z,101565.00
2022-08-08T21:24:22.420Z,101577.00
2022-08-08T21:29:11.866Z,101575.00
2022-08-08T21:34:18.460Z,101577.00
2022-08-08T21:39:14.827Z,101573.00
2022-08-08T21:44:15.947Z,101565.00
2022-08-08T21:49:18.002Z,101575.00
2022-08-08T21:54:52.337Z,101575.00
2022-08-08T21:59:21.001Z,101577.00
2022-08-08T22:04:20.982Z,101581.00
2022-08-08T22:09:26.796Z,101583.00
2022-08-08T22:14:23.723Z,101587.00
2022-08-08T22:19:24.931Z,101589.00
2022-08-08T22:24:28.767Z,101589.00
2022-08-08T22:29:58.759Z,101591.00
2022-08-08T22:34:30.897Z,101599.00
2022-08-08T22:39:45.665Z,101603.00
2022-08-08T22:44:33.479Z,101605.00
2022-08-08T22:49:32.955Z,101601.00
2022-08-08T22:54:53.956Z,101601.00
2022-08-08T22:59:58.959Z,101603.00
2022-08-08T23:04:39.877Z,101601.00
2022-08-08T23:09:58.560Z,101595.00
2022-08-08T23:14:56.307Z,101593.00
2022-08-08T23:19:48.884Z,101593.00
2022-08-08T23:24:50.031Z,101589.00
2022-08-08T23:29:56.132Z,101593.00
2022-08-08T23:34:59.064Z,101593.00
2022-08-08T23:39:55.371Z,101591.00
2022-08-08T23:44:56.109Z,101589.00
2022-08-08T23:50:02.795Z,101589.00
2022-08-08T23:55:07.575Z,101591.00
